Aérodrome :







RETROUVEZ-NOUS SUR...

 
LOGIN :

S'inscrire | Disclaimer

   EN    FR    IT 

 









Légende :    VFR   VFR Marginal   IFR   IFR Intensif   IFR Très Intensif
Visi : 
Plafond : 
>= 8 km
>= 3000ft
5 à 8 km
1000 à 3000 ft
1500m à 5 km
500 à 1000 ft
800 à 1500m
200 à 500 ft
< 800m
< 200 ft
Symboles :   Orages  Brouillard  Fortes neiges  Fortes précipitations  Vent > 20 kt






- Altitude de l'aérodrome : 74 ft
- Code IATA : PMV


SVMG - Del Caribe Int. Gen Santiago M

DERNIER METAR :
  • 181902Z AUTO 10016KT NCD 30/22 Q1015

METARs EXPIRÉS :
  • 181802Z AUTO 09015KT NCD 30/22 Q1016
  • 181702Z AUTO 10015KT NCD 33/23 Q1017

TAF TAF SVMG
Valide du 18 à 18h jusqu'au 19 à 18h UTC


181600Z 1818/1918 09008KT 9999 FEW010 TX34/19Z TN23/08Z
BECMG 1818/1822 270G15KT 9999 SCT070



MET'MAP, la Météo Aéronautique d'un coup d'oeil ! - Copyright ORBIFLY Décembre 2007 - Disclaimer

ORBIFLY MET'MAP TEAM :

Programmation & Développement : Alexandra Zaïnal
Sur une idée originale de : Baudouin d'Aumeries
Assistance à la programmation : Marc-Olivier Méhu
Soutien technique & logistique : Manuel Goepfert

Contact : metmap@orbifly.com




SOURCES & CREDITS :

   NOAA